Grand Rapids, MI

9:04 AM EDT on August 05, 2015 (GMT -0400)
WXGR.NET | | Change Station
CLOSE
Current Station
Personal Weather Station
Location: Grand Rapids, MI
Elevation: 756 ft
Nearby Weather Stations

Elev 756 ft 42.96 °N, 85.63 °W | Updated 9 seconds ago

Clear
Clear
63.1 °F
Feels Like 63.1 °F
N
2.5
Wind Variable Wind from NNE
Gusts 2.5 mph

Today
High -- | Low -- °F
--% Chance of Precip.
Yesterday
High -- | Low -- °F
Precip. -- in
6:37 AM 8:59 PM
Waning Gibbous, 67% visible
Pressure 30.07 in
Visibility 10.0 miles
Clouds Few 5500 ft
Few 22000 ft
Dew Point 51 °F
Humidity 65%
Rainfall 0.00 in
Snow Depth Not available.
UV 2 out of 12
Pollen 7.00 out of 12
Air Quality Not available.
Flu Activity Not available.
METAR KGRR 051253Z 08006KT 10SM FEW055 FEW220 18/14 A3007 RMK AO2 SLP182 T01830144

More Conditions Fewer Conditions

Pressure 30.07 in
Visibility 10.0 miles
Clouds Few 5500 ft
Few 22000 ft
Dew Point 51 °F
Humidity 65%
Rainfall 0.00 in
Snow Depth Not available.
UV 2 out of 12
Pollen 7.00 out of 12
Air Quality Not available.
Flu Activity Not available.
METAR KGRR 051253Z 08006KT 10SM FEW055 FEW220 18/14 A3007 RMK AO2 SLP182 T01830144

More Conditions Fewer Conditions

10-Day Weather Forecast

×

Almanac

Astronomy

Aug. 05, 2015 Rise Set
Actual Time
Civil Twilight
Nautical Twilight
Astronomical Twilight
Moon
Length of Visible Light
Length of Day
Tomorrow will be .
, % of the Moon is Illuminated

Today's Extremes

State Highs State Lows

Community

WunderPhotos

Upload Photos

1,844,177 photos uploaded!

WunderBlogs® & News

Nearby

Air Quality

  Air Quality AQ Index Pollutant
Not available.

Snow Depth

Station Depth Elevation

Earthquake Activity

City Distance Mag. Time & Date
Minimum magnitude displayed is 2.5.

Coastal Water Temperatures

Place Temperature

Stations

Nearby Weather Stations

Station Location Temp. Windchill Dew Point Humidity Wind Precip. Elev Updated Type